Time;durP1;ratioP1;P1;durP2;ratioP2;P2;SDS_P1;SDS_P2;PMS_P1;PMS_P2;Temp;Humidity;BMP_temperature;BMP_pressure;BME280_temperature;BME280_humidity;BME280_pressure;Samples;Min_cycle;Max_cycle;Signal;HPM_P1;HPM_P2
2024/04/19 00:00:09;;;;;;;0.47;0.25;;;;;;;11.14;28.98;98384.44;5421502;26;20532;-71
2024/04/19 00:02:34;;;;;;;1.10;0.40;;;;;;;11.06;32.32;98373.97;5393253;26;20009;-71
2024/04/19 00:05:00;;;;;;;0.70;0.25;;;;;;;11.22;32.18;98381.06;5428062;26;20010;-71
2024/04/19 00:07:28;;;;;;;0.20;0.13;;;;;;;11.04;32.04;98376.72;5418889;26;19999;-71
2024/04/19 00:09:53;;;;;;;0.75;0.30;;;;;;;11.03;32.03;98376.88;5459591;26;20067;-71
2024/04/19 00:12:19;;;;;;;0.93;0.38;;;;;;;11.16;29.81;98396.31;5430365;26;20807;-70
2024/04/19 00:14:46;;;;;;;0.73;0.30;;;;;;;11.23;29.57;98400.91;5427921;26;19999;-71
2024/04/19 00:17:12;;;;;;;1.20;0.30;;;;;;;11.12;28.35;98404.59;5406779;26;19999;-72
2024/04/19 00:19:38;;;;;;;0.40;0.20;;;;;;;11.18;29.70;98405.75;5399706;26;20044;-71
2024/04/19 00:22:05;;;;;;;0.73;0.20;;;;;;;10.81;29.18;98360.00;5441779;26;19994;-70
2024/04/19 00:24:36;;;;;;;0.30;0.20;;;;;;;11.03;29.21;98395.91;5400763;26;21469;-69
2024/04/19 00:27:01;;;;;;;0.40;0.20;;;;;;;10.89;30.50;98388.66;5404827;26;20021;-70
2024/04/19 00:29:27;;;;;;;0.40;0.30;;;;;;;10.93;29.40;98397.78;5425735;26;20536;-70
2024/04/19 00:31:52;;;;;;;0.75;0.35;;;;;;;10.85;29.00;98390.75;5423791;26;20021;-69
2024/04/19 00:34:18;;;;;;;0.85;0.38;;;;;;;10.98;30.62;98379.13;5401572;26;20058;-70
2024/04/19 00:36:43;;;;;;;1.13;0.40;;;;;;;10.93;31.35;98377.81;5430929;26;20007;-69
2024/04/19 00:39:14;;;;;;;0.60;0.30;;;;;;;10.84;30.44;98381.31;5399967;26;20462;-69
2024/04/19 00:41:42;;;;;;;1.35;0.40;;;;;;;10.77;30.08;98368.09;5435445;26;20329;-69
2024/04/19 00:44:07;;;;;;;1.35;0.40;;;;;;;10.48;29.00;98334.56;5401045;26;20003;-69
2024/04/19 00:46:33;;;;;;;0.90;0.30;;;;;;;10.86;29.06;98363.78;5396227;26;19999;-69
2024/04/19 00:48:58;;;;;;;1.52;0.40;;;;;;;10.91;27.91;98363.31;5429419;26;19995;-69
2024/04/19 00:51:26;;;;;;;1.05;0.30;;;;;;;10.86;27.65;98368.97;5401866;26;19995;-70
2024/04/19 00:53:51;;;;;;;0.80;0.30;;;;;;;10.72;28.22;98343.53;5426423;26;19991;-69
2024/04/19 00:56:19;;;;;;;1.15;0.32;;;;;;;10.96;29.72;98371.47;5432907;26;19998;-70
2024/04/19 00:58:47;;;;;;;0.45;0.22;;;;;;;10.94;28.29;98382.03;5428171;26;20097;-70
2024/04/19 01:01:13;;;;;;;0.65;0.30;;;;;;;10.85;28.36;98382.94;5438341;26;20010;-69
2024/04/19 01:03:38;;;;;;;0.52;0.20;;;;;;;10.80;28.70;98381.75;5431527;26;20448;-69
2024/04/19 01:06:06;;;;;;;1.42;0.38;;;;;;;10.73;28.50;98386.75;5434608;26;20909;-70
2024/04/19 01:08:34;;;;;;;0.28;0.20;;;;;;;10.91;29.00;98381.50;5429264;26;20112;-69
2024/04/19 01:10:59;;;;;;;1.08;0.40;;;;;;;11.00;28.79;98377.19;5401883;26;19999;-70
2024/04/19 01:13:25;;;;;;;1.17;0.40;;;;;;;10.83;28.89;98379.69;5400883;26;20018;-70
2024/04/19 01:15:54;;;;;;;1.10;0.30;;;;;;;10.84;29.95;98385.69;5398331;26;20015;-70
2024/04/19 01:18:21;;;;;;;1.75;0.40;;;;;;;10.54;32.37;98349.56;5397811;26;20134;-70
2024/04/19 01:20:47;;;;;;;1.40;0.30;;;;;;;10.61;34.05;98387.97;5427841;26;20080;-70
2024/04/19 01:23:17;;;;;;;0.93;0.38;;;;;;;10.45;33.14;98396.44;5394580;26;20007;-69
2024/04/19 01:25:42;;;;;;;;;;;;;;;10.33;33.51;98393.22;5396608;26;20003;-70
2024/04/19 01:28:12;;;;;;;1.08;0.38;;;;;;;10.31;30.82;98397.75;5430423;26;19940;-68
2024/04/19 01:30:40;;;;;;;0.73;0.30;;;;;;;10.29;30.60;98391.88;5401172;26;20014;-69
2024/04/19 01:33:06;;;;;;;0.93;0.32;;;;;;;10.34;29.35;98403.47;5428814;26;20064;-70
2024/04/19 01:35:32;;;;;;;0.85;0.30;;;;;;;10.36;28.50;98403.34;5430830;26;20836;-70
2024/04/19 01:37:59;;;;;;;0.70;0.30;;;;;;;10.47;28.81;98403.09;5434647;26;20014;-70
2024/04/19 01:40:27;;;;;;;0.68;0.28;;;;;;;10.30;29.12;98412.50;5407539;26;20344;-70
2024/04/19 01:42:55;;;;;;;0.60;0.30;;;;;;;10.04;29.38;98367.41;5405970;26;20018;-70
2024/04/19 01:45:23;;;;;;;1.00;0.40;;;;;;;10.36;28.66;98405.94;5438752;26;20599;-69
2024/04/19 01:47:49;;;;;;;0.68;0.28;;;;;;;10.20;29.21;98404.78;5460239;26;20059;-69
2024/04/19 01:50:14;;;;;;;0.95;0.30;;;;;;;10.34;28.96;98400.06;5427822;26;20011;-70
2024/04/19 01:52:39;;;;;;;0.52;0.30;;;;;;;10.30;28.82;98409.91;5423919;26;20007;-70
2024/04/19 01:55:05;;;;;;;0.90;0.40;;;;;;;10.31;28.84;98395.16;5387681;26;20022;-69
2024/04/19 01:57:31;;;;;;;2.10;0.40;;;;;;;10.29;28.73;98386.66;5434226;26;20078;-70
2024/04/19 01:59:56;;;;;;;1.08;0.30;;;;;;;10.31;28.82;98387.38;5433040;26;19995;-70
2024/04/19 02:02:22;;;;;;;1.20;0.30;;;;;;;10.31;29.36;98392.56;5403292;26;20060;-69
2024/04/19 02:04:48;;;;;;;1.15;0.30;;;;;;;10.29;29.48;98394.47;5427954;26;19999;-69
2024/04/19 02:07:16;;;;;;;0.88;0.40;;;;;;;10.00;29.46;98336.56;5427949;26;19998;-69
2024/04/19 02:09:44;;;;;;;0.80;0.30;;;;;;;10.29;29.18;98397.88;5400649;26;19999;-70
2024/04/19 02:12:10;;;;;;;0.40;0.30;;;;;;;10.31;28.96;98392.56;5393560;26;20031;-69
2024/04/19 02:14:36;;;;;;;1.38;0.30;;;;;;;10.06;29.20;98353.34;5440587;26;20012;-71
2024/04/19 02:17:01;;;;;;;0.85;0.30;;;;;;;10.22;30.48;98385.63;5431683;26;20017;-69
2024/04/19 02:19:29;;;;;;;0.45;0.20;;;;;;;10.22;33.18;98390.81;5484602;25;20133;-70
2024/04/19 02:21:57;;;;;;;0.35;0.25;;;;;;;10.00;36.85;98393.72;5405447;26;20068;-69
2024/04/19 02:24:22;;;;;;;0.30;0.20;;;;;;;9.84;36.89;98390.09;5404037;26;20007;-69
2024/04/19 02:26:52;;;;;;;1.40;0.30;;;;;;;9.59;39.55;98387.22;5390094;26;21272;-69
2024/04/19 02:32:02;;;;;;;0.25;0.20;;;;;;;9.66;40.24;98390.09;5422581;26;20068;-69
2024/04/19 02:34:27;;;;;;;0.88;0.30;;;;;;;9.57;39.46;98386.56;5407656;26;20006;-70
2024/04/19 02:36:55;;;;;;;0.52;0.20;;;;;;;9.51;38.57;98380.16;5398728;26;20612;-69
2024/04/19 02:39:21;;;;;;;0.47;0.28;;;;;;;9.60;37.83;98391.44;5406388;26;20014;-69
2024/04/19 02:41:47;;;;;;;0.52;0.17;;;;;;;9.56;38.39;98379.72;5401252;26;20018;-69
2024/04/19 02:44:13;;;;;;;0.63;0.20;;;;;;;9.61;37.34;98380.91;5401851;26;20003;-70
2024/04/19 02:46:39;;;;;;;0.65;0.30;;;;;;;9.55;39.81;98384.09;5431524;26;19995;-69
2024/04/19 02:49:07;;;;;;;1.30;0.32;;;;;;;9.46;38.26;98386.75;5395906;26;19995;-70
2024/04/19 02:51:35;;;;;;;0.98;0.30;;;;;;;9.50;37.01;98388.91;5417212;26;20013;-70
2024/04/19 02:54:01;;;;;;;1.38;0.40;;;;;;;9.51;36.26;98376.72;5405491;26;20145;-69
2024/04/19 02:56:26;;;;;;;0.40;0.20;;;;;;;9.57;37.38;98381.38;5405100;26;20588;-69
2024/04/19 02:58:52;;;;;;;1.20;0.50;;;;;;;9.64;39.02;98382.44;5428439;26;20048;-69
2024/04/19 03:01:20;;;;;;;0.80;0.30;;;;;;;9.42;36.99;98344.69;5406286;26;20003;-69
2024/04/19 03:03:45;;;;;;;0.57;0.30;;;;;;;9.55;34.54;98370.31;5402448;26;19995;-69
2024/04/19 03:06:11;;;;;;;1.05;0.30;;;;;;;9.59;34.72;98372.47;5435245;26;20009;-70
2024/04/19 03:08:36;;;;;;;0.90;0.35;;;;;;;9.61;35.67;98369.72;5435720;26;20014;-70
2024/04/19 03:11:05;;;;;;;0.73;0.30;;;;;;;9.53;31.91;98372.25;5429902;26;20035;-70
2024/04/19 03:13:31;;;;;;;0.68;0.20;;;;;;;9.59;32.60;98369.88;5383896;26;20055;-69
2024/04/19 03:16:06;;;;;;;0.70;0.32;;;;;;;9.65;31.53;98375.44;5427292;26;20006;-70
2024/04/19 03:18:32;;;;;;;0.35;0.28;;;;;;;9.67;31.13;98379.53;5424029;26;19998;-70
2024/04/19 03:20:59;;;;;;;0.22;0.20;;;;;;;9.59;30.89;98369.06;5426773;26;20003;-69
2024/04/19 03:23:25;;;;;;;0.88;0.35;;;;;;;9.75;30.57;98365.84;5406263;26;20010;-70
2024/04/19 03:25:51;;;;;;;1.25;0.38;;;;;;;9.74;30.89;98378.00;5424501;26;19999;-69
2024/04/19 03:28:16;;;;;;;0.60;0.30;;;;;;;9.39;31.25;98321.63;5394299;26;20074;-70
2024/04/19 03:30:41;;;;;;;0.65;0.30;;;;;;;9.76;31.07;98365.69;5429411;26;20006;-69
2024/04/19 03:33:09;;;;;;;2.20;0.20;;;;;;;9.74;30.96;98362.41;5449705;26;19999;-70
2024/04/19 03:35:44;;;;;;;0.63;0.22;;;;;;;9.86;29.95;98357.03;5461269;26;19995;-69
2024/04/19 03:38:14;;;;;;;0.38;0.20;;;;;;;9.88;29.77;98358.50;5435477;26;20002;-69
2024/04/19 03:40:40;;;;;;;1.63;0.38;;;;;;;9.92;30.89;98369.44;5396488;26;20033;-69
2024/04/19 03:43:10;;;;;;;0.80;0.32;;;;;;;9.98;30.85;98355.84;5424888;26;20039;-69
2024/04/19 03:45:41;;;;;;;0.80;0.20;;;;;;;9.85;30.85;98361.38;5427062;26;20009;-69
2024/04/19 03:48:08;;;;;;;0.77;0.20;;;;;;;9.62;30.87;98309.06;5411076;26;20006;-69
2024/04/19 03:50:36;;;;;;;0.55;0.30;;;;;;;9.85;30.59;98332.03;5398225;26;20118;-70
2024/04/19 03:53:03;;;;;;;1.02;0.38;;;;;;;9.92;30.72;98351.25;5457039;26;20092;-70
2024/04/19 03:55:29;;;;;;;0.60;0.30;;;;;;;9.98;30.21;98355.84;5404528;26;20128;-69
2024/04/19 03:57:54;;;;;;;0.57;0.20;;;;;;;9.95;29.94;98346.56;5469937;26;20134;-69
2024/04/19 04:00:22;;;;;;;1.10;0.35;;;;;;;9.96;30.30;98352.56;5388133;26;19995;-69
2024/04/19 04:02:50;;;;;;;0.90;0.35;;;;;;;9.80;31.13;98345.44;5459381;26;20007;-71
2024/04/19 04:05:15;;;;;;;1.60;0.50;;;;;;;9.82;30.27;98343.53;5418717;26;20013;-69
2024/04/19 04:07:41;;;;;;;1.30;0.38;;;;;;;9.88;30.46;98358.50;5396915;26;20019;-69
2024/04/19 04:10:06;;;;;;;0.63;0.30;;;;;;;9.63;31.01;98314.09;5406721;26;20006;-71
2024/04/19 04:12:32;;;;;;;0.47;0.20;;;;;;;9.75;31.83;98356.28;5418475;26;20010;-69
2024/04/19 04:14:57;;;;;;;0.50;0.30;;;;;;;9.73;32.79;98352.16;5420120;26;20030;-71
2024/04/19 04:17:25;;;;;;;0.75;0.20;;;;;;;9.67;32.50;98363.13;5429929;26;20010;-70
2024/04/19 04:19:51;;;;;;;0.93;0.30;;;;;;;9.74;32.16;98353.81;5404102;26;20359;-68
2024/04/19 04:22:16;;;;;;;0.77;0.20;;;;;;;9.62;32.60;98353.22;5394173;26;20025;-73
2024/04/19 04:24:42;;;;;;;1.40;0.30;;;;;;;9.31;32.88;98327.53;5412770;26;19999;-71
2024/04/19 04:27:07;;;;;;;0.82;0.22;;;;;;;9.65;32.78;98365.88;5397053;26;20021;-71
2024/04/19 04:29:32;;;;;;;0.85;0.32;;;;;;;9.55;32.14;98367.72;5395489;26;21466;-69
2024/04/19 04:31:58;;;;;;;1.92;0.50;;;;;;;9.62;32.54;98364.41;5424968;26;19996;-71
2024/04/19 04:34:23;;;;;;;0.95;0.30;;;;;;;9.60;32.94;98363.72;5426972;26;20043;-71
2024/04/19 04:36:51;;;;;;;1.25;0.40;;;;;;;9.40;32.97;98360.41;5432376;26;20007;-71
2024/04/19 04:39:19;;;;;;;0.63;0.30;;;;;;;9.50;32.78;98362.13;5408163;26;19998;-70
2024/04/19 04:41:45;;;;;;;0.80;0.30;;;;;;;9.47;33.04;98371.00;5421598;26;20067;-71
2024/04/19 04:44:10;;;;;;;0.63;0.32;;;;;;;9.37;34.24;98367.66;5424854;26;20435;-71
2024/04/19 04:46:36;;;;;;;0.50;0.28;;;;;;;9.12;36.60;98335.38;5434087;26;20009;-71
2024/04/19 04:49:04;;;;;;;0.88;0.30;;;;;;;9.48;35.26;98361.47;5398447;26;20040;-71
2024/04/19 05:29:30;;;;;;;1.05;0.40;;;;;;;10.16;30.87;98381.84;5441338;25;20405;-70
2024/04/19 05:31:58;;;;;;;1.02;0.40;;;;;;;10.23;31.63;98388.09;5441036;26;21590;-70
2024/04/19 05:34:23;;;;;;;1.20;0.30;;;;;;;9.93;31.51;98350.25;5437512;26;20385;-70
2024/04/19 05:36:51;;;;;;;1.70;0.50;;;;;;;10.21;32.11;98397.81;5403037;26;20344;-70
2024/04/19 05:39:16;;;;;;;0.73;0.40;;;;;;;10.11;31.63;98397.88;5398322;26;20017;-70
2024/04/19 05:41:44;;;;;;;1.30;0.40;;;;;;;9.95;32.30;98350.97;5432739;26;20612;-70
2024/04/19 05:44:10;;;;;;;0.73;0.20;;;;;;;10.20;32.45;98412.59;5398302;26;20099;-70
2024/04/19 05:46:35;;;;;;;1.00;0.40;;;;;;;10.15;32.56;98408.81;5429042;26;20003;-70
2024/04/19 05:49:00;;;;;;;2.17;0.55;;;;;;;9.88;32.55;98379.28;5432009;26;20005;-70
2024/04/19 05:51:26;;;;;;;1.05;0.30;;;;;;;10.09;32.62;98409.38;5438637;26;20435;-70
2024/04/19 05:53:51;;;;;;;0.68;0.30;;;;;;;9.82;33.62;98370.31;5430788;26;20075;-70
2024/04/19 05:56:19;;;;;;;0.57;0.30;;;;;;;10.20;33.06;98412.59;5438915;26;19999;-70
2024/04/19 05:58:44;;;;;;;1.42;0.40;;;;;;;10.18;32.38;98416.28;5398652;26;21119;-70
2024/04/19 06:01:10;;;;;;;0.98;0.40;;;;;;;10.25;30.94;98417.34;5433228;26;19994;-70
2024/04/19 06:03:38;;;;;;;1.90;0.40;;;;;;;10.34;30.70;98402.66;5430806;26;20014;-70
2024/04/19 06:06:03;;;;;;;0.68;0.40;;;;;;;10.39;31.76;98409.06;5403685;26;20507;-70
2024/04/19 06:08:29;;;;;;;1.65;0.30;;;;;;;10.41;31.95;98406.31;5405954;26;20007;-70
2024/04/19 06:10:54;;;;;;;0.80;0.30;;;;;;;10.29;30.43;98384.06;5436327;26;20002;-70
2024/04/19 06:13:19;;;;;;;1.73;0.50;;;;;;;10.28;31.93;98366.88;5403676;26;20010;-70
2024/04/19 06:15:45;;;;;;;2.67;0.70;;;;;;;10.54;32.74;98409.34;5405793;26;20010;-71
2024/04/19 06:18:10;;;;;;;1.95;0.50;;;;;;;10.63;30.84;98406.84;5419688;26;20035;-70
2024/04/19 06:20:38;;;;;;;1.42;0.40;;;;;;;10.64;33.56;98409.28;5430793;26;20089;-70
2024/04/19 06:23:07;;;;;;;5.28;0.60;;;;;;;10.64;37.39;98421.44;5449611;26;20009;-70
2024/04/19 06:25:33;;;;;;;1.25;0.50;;;;;;;10.45;38.49;98401.63;5433593;26;20011;-70
2024/04/19 06:28:04;;;;;;;2.33;0.50;;;;;;;10.53;38.61;98397.34;5399467;26;20082;-70
2024/04/19 06:30:29;;;;;;;2.03;0.50;;;;;;;10.27;36.53;98368.63;5385288;26;20007;-70
2024/04/19 06:32:54;;;;;;;1.50;0.50;;;;;;;10.44;35.22;98407.78;5423247;26;20051;-71
2024/04/19 06:35:21;;;;;;;1.30;0.50;;;;;;;10.44;35.00;98389.59;5409827;26;20344;-70
2024/04/19 06:37:47;;;;;;;3.75;0.60;;;;;;;10.07;32.87;98341.97;5416474;26;20005;-70
2024/04/19 06:40:15;;;;;;;1.77;0.55;;;;;;;10.00;33.36;98338.31;5416973;26;20045;-70
2024/04/19 06:42:40;;;;;;;2.80;0.52;;;;;;;10.03;34.11;98339.84;5388410;26;19991;-70
2024/04/19 06:45:08;;;;;;;2.13;0.50;;;;;;;10.37;33.01;98392.00;5420523;26;20014;-70
2024/04/19 06:47:36;;;;;;;2.25;0.52;;;;;;;10.57;33.72;98395.25;5385400;26;20000;-70
2024/04/19 06:50:02;;;;;;;0.98;0.43;;;;;;;10.43;33.11;98385.38;5383986;26;20017;-70
2024/04/19 06:52:27;;;;;;;1.85;0.50;;;;;;;10.34;33.48;98353.28;5380508;26;20035;-71
2024/04/19 06:54:53;;;;;;;1.20;0.40;;;;;;;10.25;34.91;98343.75;5437871;26;20115;-70
2024/04/19 06:57:19;;;;;;;2.28;0.57;;;;;;;10.15;34.48;98354.25;5394168;26;20079;-70
2024/04/19 06:59:44;;;;;;;1.98;0.55;;;;;;;10.43;34.21;98393.97;5420842;26;21774;-70
2024/04/19 07:02:10;;;;;;;1.90;0.60;;;;;;;10.38;34.90;98393.59;5415940;26;20092;-70
2024/04/19 07:04:35;;;;;;;3.67;0.85;;;;;;;10.44;34.78;98372.25;5417658;26;20031;-70
2024/04/19 07:07:00;;;;;;;2.45;0.80;;;;;;;10.25;34.89;98377.53;5383243;26;20015;-70
2024/04/19 07:09:26;;;;;;;2.30;0.80;;;;;;;10.31;34.19;98387.38;5416696;26;20076;-70
2024/04/19 07:11:51;;;;;;;3.20;0.70;;;;;;;10.29;34.65;98389.28;5416020;26;19995;-70
2024/04/19 07:14:17;;;;;;;3.35;0.73;;;;;;;9.82;34.96;98333.94;5388620;26;20007;-70
2024/04/19 07:16:43;;;;;;;2.70;0.70;;;;;;;9.99;35.07;98383.47;5399705;26;20003;-70
2024/04/19 07:19:08;;;;;;;4.78;1.23;;;;;;;10.03;35.32;98392.59;5417418;26;20011;-70
2024/04/19 07:21:33;;;;;;;3.25;0.88;;;;;;;10.04;34.84;98380.41;5385294;26;21034;-70
2024/04/19 07:23:59;;;;;;;3.88;0.70;;;;;;;10.00;34.36;98395.47;5403636;26;20080;-70
2024/04/19 07:26:24;;;;;;;3.22;0.90;;;;;;;10.06;34.12;98381.06;5408663;26;19998;-70
2024/04/19 07:28:49;;;;;;;4.93;2.08;;;;;;;10.05;34.30;98390.66;5417007;26;19996;-70
2024/04/19 07:31:18;;;;;;;7.95;3.90;;;;;;;9.98;34.12;98389.59;5402338;26;20516;-70
2024/04/19 07:33:43;;;;;;;10.23;4.40;;;;;;;9.93;32.66;98373.63;5416662;26;20181;-71
2024/04/19 07:36:10;;;;;;;15.77;6.18;;;;;;;10.17;32.09;98392.09;5408218;26;20444;-69
2024/04/19 07:38:36;;;;;;;10.50;4.38;;;;;;;10.06;32.38;98366.34;5415782;26;20002;-71
2024/04/19 07:41:05;;;;;;;9.82;3.60;;;;;;;10.11;32.58;98365.88;5381863;26;19999;-71
2024/04/19 07:43:33;;;;;;;9.07;4.18;;;;;;;10.28;31.52;98379.84;5415011;26;20018;-69
2024/04/19 07:45:59;;;;;;;19.02;7.80;;;;;;;10.31;32.31;98376.97;5403583;26;20000;-69
2024/04/19 07:48:24;;;;;;;18.88;8.05;;;;;;;10.28;33.60;98367.66;5373357;26;21485;-70
2024/04/19 07:50:49;;;;;;;16.95;7.15;;;;;;;9.99;32.64;98310.72;5412964;26;20738;-70
2024/04/19 07:53:19;;;;;;;25.83;12.02;;;;;;;10.23;33.30;98354.31;5398524;26;20006;-70
2024/04/19 07:55:45;;;;;;;15.65;6.88;;;;;;;10.01;32.71;98314.00;5387671;26;19995;-70
2024/04/19 07:58:12;;;;;;;7.10;1.90;;;;;;;10.17;32.95;98315.94;5406167;26;20956;-70
2024/04/19 08:00:38;;;;;;;4.00;1.13;;;;;;;10.03;32.40;98303.47;5403444;26;20003;-70
2024/04/19 08:03:06;;;;;;;3.25;1.00;;;;;;;10.35;32.76;98355.75;5430644;26;20075;-70
2024/04/19 08:05:31;;;;;;;2.95;0.80;;;;;;;10.24;32.21;98358.53;5395282;26;20006;-70
2024/04/19 08:07:58;;;;;;;3.28;0.98;;;;;;;10.27;32.54;98360.03;5405432;26;20648;-70
2024/04/19 08:10:25;;;;;;;5.20;1.80;;;;;;;10.34;32.31;98364.50;5413330;26;20003;-70
2024/04/19 08:12:54;;;;;;;3.28;0.93;;;;;;;10.34;31.46;98356.69;5393059;26;20435;-70
2024/04/19 08:15:19;;;;;;;2.42;0.60;;;;;;;10.07;32.12;98316.00;5404732;26;21136;-70
2024/04/19 08:17:45;;;;;;;2.33;0.70;;;;;;;10.34;32.03;98348.09;5424695;26;19998;-70
2024/04/19 08:20:12;;;;;;;3.20;0.75;;;;;;;10.43;33.35;98349.00;5398093;26;20025;-70
2024/04/19 08:22:38;;;;;;;3.08;0.70;;;;;;;10.88;31.89;98348.81;5408489;26;20037;-70
2024/04/19 08:25:06;;;;;;;3.53;0.75;;;;;;;12.30;28.95;98295.25;5409947;26;20428;-69
2024/04/19 08:27:32;;;;;;;1.45;0.45;;;;;;;14.06;26.75;98344.00;5386825;26;19995;-70
2024/04/19 08:29:57;;;;;;;2.30;0.50;;;;;;;15.03;25.30;98344.19;5408730;26;20812;-70
2024/04/19 08:32:25;;;;;;;0.98;0.40;;;;;;;16.51;23.55;98350.13;5413157;26;20014;-69
2024/04/19 08:34:55;;;;;;;1.17;0.40;;;;;;;16.60;23.12;98341.09;5405545;26;19999;-70
2024/04/19 08:37:21;;;;;;;1.02;0.40;;;;;;;17.67;22.69;98332.03;5394694;26;20003;-70
2024/04/19 08:39:50;;;;;;;1.02;0.40;;;;;;;17.89;21.44;98289.03;5395912;26;20514;-71
2024/04/19 08:42:16;;;;;;;1.00;0.40;;;;;;;18.16;20.54;98281.97;5470916;21;20012;-69
2024/04/19 08:44:44;;;;;;;1.35;0.40;;;;;;;19.13;19.73;98324.47;5303617;26;20008;-69
2024/04/19 08:47:15;;;;;;;3.60;0.60;;;;;;;19.57;19.71;98322.91;5306594;26;19993;-68
2024/04/19 08:49:49;;;;;;;1.00;0.50;;;;;;;19.39;19.81;98282.22;5302429;26;20074;-70
2024/04/19 08:52:18;;;;;;;3.70;1.50;;;;;;;19.51;18.66;98316.66;5294412;26;20812;-69
2024/04/19 08:54:44;;;;;;;3.88;1.38;;;;;;;19.51;19.71;98321.09;5305524;26;20004;-69
2024/04/19 08:57:12;;;;;;;4.30;1.00;;;;;;;18.94;21.80;98286.63;5277843;26;20036;-68
2024/04/19 08:59:38;;;;;;;3.10;0.77;;;;;;;18.33;20.66;98306.91;5300999;26;20045;-70
2024/04/19 09:02:05;;;;;;;2.63;0.73;;;;;;;17.19;21.17;98318.09;5266431;26;20000;-69
2024/04/19 09:04:30;;;;;;;2.08;0.60;;;;;;;16.05;20.88;98317.22;5275217;26;20001;-70
2024/04/19 09:06:55;;;;;;;1.55;0.40;;;;;;;15.60;21.83;98271.94;5281065;26;20534;-68
2024/04/19 09:09:23;;;;;;;2.33;0.70;;;;;;;15.69;22.55;98314.59;5308284;26;20452;-69
2024/04/19 09:11:49;;;;;;;0.88;0.40;;;;;;;15.75;23.62;98308.63;5289461;26;20883;-69
2024/04/19 09:14:18;;;;;;;1.48;0.50;;;;;;;15.31;23.39;98296.41;5310533;26;20787;-69
2024/04/19 09:16:45;;;;;;;3.08;0.50;;;;;;;14.70;23.53;98294.78;5287198;26;20001;-69
2024/04/19 09:19:13;;;;;;;1.38;0.40;;;;;;;14.46;23.90;98297.59;5311272;26;20023;-69
2024/04/19 09:21:39;;;;;;;1.17;0.40;;;;;;;13.72;23.66;98241.44;5306503;26;20060;-70
2024/04/19 09:24:05;;;;;;;2.75;0.50;;;;;;;14.16;23.42;98294.88;5310834;26;20589;-69
2024/04/19 09:26:31;;;;;;;0.90;0.40;;;;;;;14.37;23.34;98283.78;5282971;26;20032;-69
2024/04/19 09:28:57;;;;;;;1.45;0.47;;;;;;;14.66;24.12;98290.06;5312730;26;20543;-69
2024/04/19 09:31:22;;;;;;;1.05;0.35;;;;;;;14.71;22.15;98285.94;5307971;26;20001;-69
2024/04/19 09:33:53;;;;;;;1.02;0.30;;;;;;;14.73;24.25;98289.19;5311750;26;20001;-70
2024/04/19 09:36:18;;;;;;;1.23;0.60;;;;;;;14.43;22.55;98296.94;5278247;26;20087;-69
2024/04/19 09:38:45;;;;;;;1.70;0.40;;;;;;;14.42;23.70;98282.25;5279178;26;20001;-69
2024/04/19 09:41:17;;;;;;;1.63;0.55;;;;;;;14.75;23.31;98283.78;5311648;26;20749;-68
2024/04/19 09:43:49;;;;;;;2.65;0.50;;;;;;;14.97;20.68;98289.94;5268732;26;20005;-70
2024/04/19 09:46:22;;;;;;;2.33;0.47;;;;;;;15.01;20.61;98278.09;5307309;26;20015;-68
2024/04/19 09:48:48;;;;;;;0.70;0.30;;;;;;;15.26;20.40;98283.03;5295810;26;20536;-69
2024/04/19 09:51:15;;;;;;;1.65;0.50;;;;;;;15.18;22.54;98268.22;5308819;26;19993;-69
2024/04/19 09:53:44;;;;;;;2.58;0.70;;;;;;;15.17;21.75;98275.28;5269676;26;20009;-70
2024/04/19 09:56:25;;;;;;;1.70;0.55;;;;;;;15.03;21.14;98275.31;5279981;26;20019;-70
2024/04/19 09:58:51;;;;;;;1.45;0.50;;;;;;;15.05;21.61;98268.88;5297243;26;20006;-69
2024/04/19 10:01:17;;;;;;;1.63;0.40;;;;;;;14.79;21.19;98215.19;5307339;26;20129;-69
2024/04/19 10:03:47;;;;;;;1.52;0.40;;;;;;;15.18;21.33;98266.41;5307549;26;20005;-70
2024/04/19 10:06:13;;;;;;;0.75;0.40;;;;;;;15.03;20.58;98249.13;5316516;26;20667;-69
2024/04/19 10:08:39;;;;;;;1.10;0.40;;;;;;;15.20;20.24;98250.53;5307037;26;20012;-70
2024/04/19 10:11:05;;;;;;;2.00;0.57;;;;;;;15.34;20.66;98246.28;5327654;26;20475;-70
2024/04/19 10:13:30;;;;;;;2.55;0.50;;;;;;;15.40;21.08;98250.75;5307427;26;19997;-70
2024/04/19 10:16:00;;;;;;;2.53;0.60;;;;;;;15.48;20.92;98249.84;5307993;26;20608;-69
2024/04/19 10:18:30;;;;;;;1.13;0.40;;;;;;;15.41;20.20;98241.91;5301957;26;20009;-69
2024/04/19 10:20:58;;;;;;;1.00;0.40;;;;;;;15.58;19.98;98248.53;5282860;26;20008;-70
2024/04/19 10:23:25;;;;;;;2.30;0.50;;;;;;;15.53;19.77;98239.63;5273696;26;20040;-69
2024/04/19 10:25:51;;;;;;;1.80;0.50;;;;;;;15.05;19.03;98177.25;5306414;26;20019;-70
2024/04/19 10:28:16;;;;;;;0.82;0.40;;;;;;;15.49;19.07;98236.56;5310824;26;20482;-69
2024/04/19 10:30:42;;;;;;;1.95;0.57;;;;;;;15.53;18.65;98227.34;5309840;26;20016;-69
2024/04/19 10:33:11;;;;;;;0.95;0.40;;;;;;;15.64;19.56;98226.03;5271758;26;20048;-69
2024/04/19 10:35:38;;;;;;;1.95;0.60;;;;;;;15.94;19.28;98232.00;5281161;26;20004;-69
2024/04/19 10:38:03;;;;;;;3.05;0.70;;;;;;;16.20;19.97;98225.34;5271589;26;20005;-69
2024/04/19 10:40:29;;;;;;;1.52;0.50;;;;;;;15.91;19.70;98210.56;5311423;26;20008;-69
2024/04/19 10:43:10;;;;;;;1.85;0.40;;;;;;;15.68;21.15;98171.41;5295870;26;19997;-69
2024/04/19 10:45:40;;;;;;;1.67;0.40;;;;;;;15.84;19.85;98207.09;5310080;26;20011;-70
2024/04/19 10:48:09;;;;;;;0.80;0.40;;;;;;;15.79;19.79;98205.03;5304298;26;20086;-70
2024/04/19 10:50:36;;;;;;;1.08;0.40;;;;;;;15.80;21.69;98180.44;5277221;26;20104;-69
2024/04/19 10:53:02;;;;;;;3.20;0.60;;;;;;;15.79;20.43;98183.25;5312017;26;20013;-69
2024/04/19 10:55:30;;;;;;;1.40;0.50;;;;;;;15.84;20.38;98191.34;5305497;26;20036;-70
2024/04/19 10:57:56;;;;;;;3.28;0.63;;;;;;;15.95;20.90;98175.09;5312576;26;20074;-69
2024/04/19 11:00:22;;;;;;;1.83;0.60;;;;;;;16.05;20.51;98180.03;5279742;26;21868;-69
2024/04/19 11:02:48;;;;;;;2.65;0.50;;;;;;;16.08;21.02;98171.78;5311133;26;20005;-69
2024/04/19 11:05:13;;;;;;;2.00;0.50;;;;;;;16.01;20.54;98160.44;5305172;26;20368;-69
2024/04/19 11:07:39;;;;;;;2.83;0.60;;;;;;;15.90;20.54;98144.22;5280251;26;20727;-70
2024/04/19 11:10:06;;;;;;;2.05;0.50;;;;;;;15.90;20.14;98161.78;5307043;26;20082;-69
2024/04/19 11:12:32;;;;;;;2.05;0.50;;;;;;;16.13;21.05;98159.72;5297662;26;20034;-69
2024/04/19 11:15:01;;;;;;;2.22;0.47;;;;;;;16.15;19.24;98154.28;5268452;26;20012;-69
2024/04/19 11:17:28;;;;;;;1.38;0.50;;;;;;;16.23;18.95;98148.09;5298448;26;20337;-69
2024/04/19 11:19:56;;;;;;;1.95;0.57;;;;;;;16.28;19.81;98138.66;5282161;26;20071;-69
2024/04/19 11:22:22;;;;;;;1.20;0.40;;;;;;;16.13;19.87;98117.75;5289372;26;20433;-69
2024/04/19 11:24:48;;;;;;;1.83;0.50;;;;;;;16.20;20.75;98130.09;5282340;26;20022;-69
2024/04/19 11:27:13;;;;;;;1.13;0.40;;;;;;;16.08;20.98;98133.28;5297668;26;20009;-69
2024/04/19 11:29:40;;;;;;;2.13;0.55;;;;;;;16.03;19.20;98092.91;5296375;26;20015;-69
2024/04/19 11:32:06;;;;;;;3.95;0.60;;;;;;;16.34;19.60;98122.13;5294540;26;20123;-69
2024/04/19 11:34:35;;;;;;;0.68;0.30;;;;;;;16.50;19.57;98130.66;5307590;26;20023;-70
2024/04/19 11:37:05;;;;;;;2.83;0.63;;;;;;;16.40;20.48;98125.78;5309496;26;20083;-69
2024/04/19 11:39:30;;;;;;;;;;;;;;;16.09;20.71;98118.34;5283495;26;20018;-69
2024/04/19 11:41:56;;;;;;;0.68;0.38;;;;;;;16.13;20.36;98117.75;5307980;26;19926;-69
2024/04/19 11:44:21;;;;;;;3.38;0.50;;;;;;;15.98;21.29;98067.25;5327640;26;20355;-69
2024/04/19 11:46:47;;;;;;;4.57;0.65;;;;;;;15.90;18.81;98102.28;5305222;26;20020;-69
2024/04/19 11:49:14;;;;;;;2.70;0.63;;;;;;;15.87;21.44;98052.06;5304588;26;20020;-69
2024/04/19 11:51:43;;;;;;;1.55;0.60;;;;;;;16.27;20.44;98087.16;5309511;26;20039;-69
2024/04/19 11:54:08;;;;;;;0.82;0.40;;;;;;;15.97;20.55;98044.63;5279686;26;20098;-70
2024/04/19 11:56:34;;;;;;;3.15;0.55;;;;;;;16.55;20.64;98088.09;5311811;26;20012;-69
2024/04/19 11:59:01;;;;;;;1.23;0.50;;;;;;;16.31;20.38;98046.41;5306523;26;20404;-69
2024/04/19 12:01:26;;;;;;;2.85;0.60;;;;;;;16.46;20.99;98090.09;5311399;26;20016;-69
2024/04/19 12:03:54;;;;;;;2.08;0.60;;;;;;;16.60;20.83;98086.50;5310261;26;20752;-70
2024/04/19 12:06:21;;;;;;;1.60;0.40;;;;;;;16.44;21.29;98035.16;5276514;26;21101;-70
2024/04/19 12:08:50;;;;;;;1.58;0.50;;;;;;;16.89;21.17;98077.56;5283630;26;19997;-69
2024/04/19 12:11:18;;;;;;;0.90;0.43;;;;;;;16.91;20.50;98075.53;5278838;26;20013;-69
2024/04/19 12:13:48;;;;;;;1.48;0.50;;;;;;;17.06;19.57;98072.72;5312132;26;20001;-69